Time;durP1;ratioP1;P1;durP2;ratioP2;P2;SDS_P1;SDS_P2;PMS_P1;PMS_P2;Temp;Humidity;BMP_temperature;BMP_pressure;BME280_temperature;BME280_humidity;BME280_pressure;Samples;Min_cycle;Max_cycle;Signal;HPM_P1;HPM_P2
2022/01/15 00:00:24;;;;;;;1161.78;680.60;;;6.30;99.90;;;;;;6092680;23;20093;-82
2022/01/15 00:02:50;;;;;;;1078.18;628.15;;;6.30;99.90;;;;;;6093727;23;20021;-82
2022/01/15 00:05:16;;;;;;;1063.50;597.60;;;5.70;99.90;;;;;;6093755;23;20014;-82
2022/01/15 00:07:47;;;;;;;1115.63;685.70;;;6.30;99.90;;;;;;6094349;23;20022;-82
2022/01/15 00:10:12;;;;;;;1218.40;847.37;;;6.30;99.90;;;;;;6095775;23;20069;-82
2022/01/15 00:12:41;;;;;;;1211.95;814.70;;;6.30;99.90;;;;;;6094920;23;20025;-82
2022/01/15 00:15:20;;;;;;;1147.00;639.25;;;6.30;99.90;;;;;;6094698;23;20517;-81
2022/01/15 00:17:59;;;;;;;1152.72;740.22;;;6.30;99.90;;;;;;6095648;23;20032;-82
2022/01/15 00:20:42;;;;;;;1171.35;769.00;;;6.30;99.90;;;;;;6093938;23;20069;-82
2022/01/15 00:23:08;;;;;;;1169.00;675.92;;;6.20;99.90;;;;;;6095780;23;20056;-82
2022/01/15 00:25:34;;;;;;;1209.80;811.03;;;8.60;99.90;;;;;;6094969;23;20058;-81
2022/01/15 00:28:01;;;;;;;1133.78;703.05;;;7.40;99.90;;;;;;6094968;23;20032;-81
2022/01/15 00:30:27;;;;;;;1169.20;757.50;;;6.20;99.90;;;;;;6093604;23;20022;-81
2022/01/15 00:32:53;;;;;;;1126.85;696.10;;;6.20;99.90;;;;;;6094892;23;20018;-81
2022/01/15 00:35:21;;;;;;;1156.57;740.75;;;8.20;99.90;;;;;;6093654;23;20328;-81
2022/01/15 00:37:47;;;;;;;1162.55;748.67;;;6.40;99.90;;;;;;6095738;23;20021;-82
2022/01/15 00:40:15;;;;;;;1140.13;715.13;;;6.20;99.90;;;;;;6095063;23;20017;-81
2022/01/15 00:42:42;;;;;;;1178.00;772.63;;;6.20;99.90;;;;;;6094742;23;20041;-81
2022/01/15 00:45:13;;;;;;;1174.03;759.58;;;6.20;99.90;;;;;;6094671;23;20021;-81
2022/01/15 00:47:39;;;;;;;1066.03;536.85;;;6.20;99.90;;;;;;6095180;23;20092;-81
2022/01/15 00:50:06;;;;;;;1085.35;643.10;;;6.10;99.90;;;;;;6090881;23;20047;-81
2022/01/15 00:52:32;;;;;;;1120.50;692.00;;;6.10;99.90;;;;;;6094687;23;20068;-82
2022/01/15 00:54:58;;;;;;;1125.80;703.13;;;6.20;99.90;;;;;;6094499;23;20018;-82
2022/01/15 00:57:24;;;;;;;1074.63;544.50;;;6.10;99.90;;;;;;6095441;23;20018;-81
2022/01/15 00:59:50;;;;;;;1054.80;514.33;;;6.10;99.90;;;;;;6094079;23;20025;-82
2022/01/15 01:02:16;;;;;;;1055.65;588.33;;;6.10;99.90;;;;;;6093923;23;20025;-81
2022/01/15 01:04:42;;;;;;;1054.50;519.05;;;6.10;99.90;;;;;;6095273;23;20199;-81
2022/01/15 01:07:08;;;;;;;1060.40;595.40;;;6.60;99.90;;;;;;6094720;23;20057;-82
2022/01/15 01:23:09;;;;;;;1053.57;588.42;;;6.10;99.90;;;;;;6118152;23;20502;-81
2022/01/15 01:25:44;;;;;;;1046.50;587.03;;;6.00;99.90;;;;;;6094618;23;20427;-82
2022/01/15 01:28:16;;;;;;;1052.45;594.95;;;6.00;99.90;;;;;;6095506;23;20018;-81
2022/01/15 01:30:49;;;;;;;1058.15;530.80;;;6.00;99.90;;;;;;6093403;23;20021;-81
2022/01/15 01:33:29;;;;;;;1143.38;654.97;;;6.00;99.90;;;;;;6094400;23;20013;-82
2022/01/15 01:38:34;;;;;;;1136.72;638.72;;;6.00;99.90;;;;;;6118578;23;20053;-81
2022/01/15 01:41:01;;;;;;;1084.90;648.10;;;6.00;99.90;;;;;;6095035;23;20053;-82
2022/01/15 01:46:31;;;;;;;1145.13;722.33;;;6.00;99.90;;;;;;6117881;23;20380;-81
2022/01/15 01:48:58;;;;;;;1143.15;689.63;;;5.90;99.90;;;;;;6094233;23;20406;-81
2022/01/15 01:51:34;;;;;;;1122.72;654.55;;;5.90;99.90;;;;;;6092598;23;20022;-81
2022/01/15 01:54:05;;;;;;;1122.40;675.95;;;5.80;99.90;;;;;;6094825;23;20320;-81
2022/01/15 01:56:31;;;;;;;1170.88;781.50;;;5.80;99.90;;;;;;6094568;23;20029;-82
2022/01/15 01:58:58;;;;;;;1134.38;709.15;;;5.80;99.90;;;;;;6091960;23;20014;-81
2022/01/15 02:01:24;;;;;;;1188.22;702.17;;;5.80;99.90;;;;;;6092473;23;20014;-82
2022/01/15 02:03:50;;;;;;;1215.60;803.65;;;6.30;99.90;;;;;;6094418;23;20025;-82
2022/01/15 02:06:17;;;;;;;1170.25;648.72;;;5.70;99.90;;;;;;6093765;23;20018;-82
2022/01/15 02:08:43;;;;;;;1109.85;593.58;;;5.70;99.90;;;;;;6094106;23;20017;-82
2022/01/15 02:11:09;;;;;;;1138.57;621.10;;;5.70;99.90;;;;;;6094952;23;20014;-82
2022/01/15 02:13:40;;;;;;;1081.38;587.08;;;5.70;99.90;;;;;;6092927;23;20018;-81
2022/01/15 02:16:06;;;;;;;1128.18;626.90;;;5.70;99.90;;;;;;6094985;23;20029;-81
2022/01/15 02:18:34;;;;;;;1183.15;720.05;;;5.70;99.90;;;;;;6093588;23;20021;-79
2022/01/15 02:23:43;;;;;;;1219.80;752.45;;;5.60;99.90;;;;;;6118022;23;20110;-82
2022/01/15 02:26:30;;;;;;;1224.57;722.45;;;5.60;99.90;;;;;;6094161;23;20036;-79
2022/01/15 02:29:00;;;;;;;1286.05;743.25;;;5.60;99.90;;;;;;6092994;23;20108;-79
2022/01/15 02:31:28;;;;;;;1192.13;652.83;;;6.00;99.90;;;;;;6093595;23;20018;-80
2022/01/15 02:33:56;;;;;;;1233.20;730.42;;;5.60;99.90;;;;;;6093103;23;20902;-80
2022/01/15 02:36:24;;;;;;;1198.38;690.47;;;5.60;99.90;;;;;;6094202;23;20026;-80
2022/01/15 02:38:51;;;;;;;1178.53;663.10;;;5.60;99.90;;;;;;6093514;23;20018;-80
2022/01/15 02:41:33;;;;;;;1057.80;620.13;;;5.60;99.90;;;;;;6093475;23;20022;-80
2022/01/15 02:44:04;;;;;;;1158.47;602.22;;;5.60;99.90;;;;;;6093430;23;20018;-80
2022/01/15 02:48:58;;;;;;;1206.60;681.10;;;5.60;99.90;;;;;;6117469;23;20029;-80
2022/01/15 02:51:26;;;;;;;1176.32;695.17;;;5.60;99.90;;;;;;6093804;23;20040;-80
2022/01/15 02:53:55;;;;;;;1237.72;670.50;;;5.60;99.90;;;;;;6093612;23;20026;-80
2022/01/15 02:56:23;;;;;;;1235.97;768.15;;;7.40;99.90;;;;;;6093513;23;20018;-80
2022/01/15 02:58:49;;;;;;;1221.88;713.38;;;5.60;99.90;;;;;;6093724;23;20406;-80
2022/01/15 03:01:15;;;;;;;1248.15;715.20;;;5.60;99.90;;;;;;6093338;23;20042;-80
2022/01/15 03:03:40;;;;;;;1194.65;632.95;;;5.60;99.90;;;;;;6091046;23;20014;-80
2022/01/15 03:06:14;;;;;;;1256.53;792.33;;;5.60;99.90;;;;;;6070826;23;20057;-80
2022/01/15 03:08:41;;;;;;;1238.65;758.30;;;6.10;99.90;;;;;;6116690;23;20118;-79
2022/01/15 03:11:07;;;;;;;1212.18;648.20;;;5.60;99.90;;;;;;6094713;23;20100;-80
2022/01/15 03:13:34;;;;;;;1222.15;717.92;;;5.60;99.90;;;;;;6093646;23;20391;-80
2022/01/15 03:16:00;;;;;;;1235.93;663.03;;;5.60;99.90;;;;;;6093347;23;20104;-80
2022/01/15 03:18:26;;;;;;;1179.90;624.00;;;5.60;99.90;;;;;;6093454;23;20010;-80
2022/01/15 03:20:52;;;;;;;1210.45;633.20;;;5.60;99.90;;;;;;6094708;23;20018;-80
2022/01/15 03:23:17;;;;;;;1289.68;852.45;;;5.60;99.90;;;;;;6092992;23;20092;-80
2022/01/15 03:25:43;;;;;;;1269.25;704.78;;;5.60;99.90;;;;;;6094328;23;20382;-80
2022/01/15 03:28:10;;;;;;;1289.85;782.75;;;5.60;99.90;;;;;;6091457;23;20068;-80
2022/01/15 03:30:36;;;;;;;1269.32;756.58;;;5.60;99.90;;;;;;6091557;23;20018;-80
2022/01/15 03:33:01;;;;;;;1279.00;809.80;;;5.60;99.90;;;;;;6092987;23;20026;-80
2022/01/15 03:35:27;;;;;;;1359.85;870.97;;;5.60;99.90;;;;;;6093352;23;20018;-80
2022/01/15 03:37:52;;;;;;;1288.93;785.20;;;5.60;99.90;;;;;;6092615;23;20446;-80
2022/01/15 03:40:18;;;;;;;1329.45;817.50;;;5.60;99.90;;;;;;6093908;23;20018;-81
2022/01/15 03:42:45;;;;;;;1357.05;812.03;;;5.60;99.90;;;;;;6092060;23;20430;-80
2022/01/15 03:45:12;;;;;;;1327.18;811.50;;;5.60;99.90;;;;;;6094576;23;20589;-80
2022/01/15 03:47:38;;;;;;;1233.65;720.83;;;5.60;99.90;;;;;;6094048;23;20018;-80
2022/01/15 03:50:05;;;;;;;1304.28;795.25;;;5.60;99.90;;;;;;6095941;23;20056;-80
2022/01/15 03:52:30;;;;;;;1314.13;821.75;;;5.60;99.90;;;;;;6094160;23;20095;-80
2022/01/15 03:54:56;;;;;;;1342.68;819.97;;;5.60;99.90;;;;;;6120561;23;20108;-80
2022/01/15 03:57:22;;;;;;;1211.93;718.78;;;5.60;99.90;;;;;;6095801;23;20036;-80
2022/01/15 03:59:47;;;;;;;1212.53;741.08;;;5.60;99.90;;;;;;6118713;23;20010;-80
2022/01/15 04:02:13;;;;;;;1303.28;727.35;;;5.60;99.90;;;;;;6094652;23;20403;-80
2022/01/15 04:04:39;;;;;;;1295.45;805.47;;;5.60;99.90;;;;;;6093193;23;20014;-80
2022/01/15 04:07:04;;;;;;;1276.95;812.53;;;6.20;99.90;;;;;;6093907;23;20022;-80
2022/01/15 04:09:30;;;;;;;1241.95;699.80;;;5.60;99.90;;;;;;6094033;23;20080;-80
2022/01/15 04:11:56;;;;;;;1222.85;730.55;;;5.60;99.90;;;;;;6095081;23;20608;-80
2022/01/15 04:14:21;;;;;;;1222.55;743.50;;;5.60;99.90;;;;;;6094833;23;20033;-80
2022/01/15 04:16:47;;;;;;;1245.75;750.40;;;5.60;99.90;;;;;;6094826;23;20107;-81
2022/01/15 04:19:12;;;;;;;1160.68;672.63;;;5.60;99.90;;;;;;6094723;23;20430;-80
2022/01/15 04:21:38;;;;;;;1210.25;730.00;;;5.60;99.90;;;;;;6095184;23;20426;-80
2022/01/15 04:24:04;;;;;;;1219.07;747.50;;;5.60;99.90;;;;;;6095355;23;20076;-81
2022/01/15 04:26:30;;;;;;;1235.60;763.35;;;5.50;99.90;;;;;;6093702;23;20021;-80
2022/01/15 04:29:04;;;;;;;1173.50;641.42;;;5.50;99.90;;;;;;6095228;23;20022;-80
2022/01/15 04:31:51;;;;;;;1188.85;734.85;;;5.50;99.90;;;;;;6094382;23;20017;-80
2022/01/15 04:34:27;;;;;;;1259.05;808.25;;;5.50;99.90;;;;;;6094690;23;20357;-80
2022/01/15 04:39:53;;;;;;;1303.60;763.50;;;5.50;99.90;;;;;;6062494;23;20029;-80
2022/01/15 04:42:22;;;;;;;1302.40;816.95;;;5.50;99.90;;;;;;6095033;23;20022;-81
2022/01/15 04:44:47;;;;;;;1277.28;770.00;;;5.60;99.90;;;;;;6094888;23;20018;-80
2022/01/15 04:47:13;;;;;;;1330.93;813.53;;;5.60;99.90;;;;;;6093883;23;20457;-80
2022/01/15 04:49:39;;;;;;;1272.97;799.95;;;5.50;99.90;;;;;;6095130;23;20351;-81
2022/01/15 04:52:05;;;;;;;1295.05;824.28;;;5.50;99.90;;;;;;6095451;23;20025;-80
2022/01/15 04:54:30;;;;;;;1272.80;748.97;;;5.50;99.90;;;;;;6093170;23;20018;-80
2022/01/15 04:56:56;;;;;;;1264.50;802.47;;;5.40;99.90;;;;;;6095569;23;20080;-80
2022/01/15 04:59:23;;;;;;;1267.50;742.70;;;5.60;99.90;;;;;;6094167;23;20029;-80
2022/01/15 05:01:49;;;;;;;1276.20;767.20;;;5.50;99.90;;;;;;6093449;23;20340;-80
2022/01/15 05:04:15;;;;;;;1300.78;849.67;;;5.50;99.90;;;;;;6095499;23;20021;-80
2022/01/15 05:06:41;;;;;;;1215.07;649.33;;;5.50;99.90;;;;;;6095344;23;20014;-80
2022/01/15 05:09:07;;;;;;;1259.85;700.42;;;5.50;99.90;;;;;;6093766;23;20029;-80
2022/01/15 05:14:19;;;;;;;1286.13;735.28;;;5.50;99.90;;;;;;6119373;23;20022;-80
2022/01/15 05:16:45;;;;;;;1290.05;796.20;;;5.50;99.90;;;;;;6093153;23;20052;-80
2022/01/15 05:19:11;;;;;;;1306.38;847.10;;;5.50;99.90;;;;;;6102916;23;20017;-80
2022/01/15 05:21:37;;;;;;;1264.68;741.65;;;5.60;99.90;;;;;;6094603;23;20797;-80
2022/01/15 05:24:03;;;;;;;1206.75;722.28;;;5.50;99.90;;;;;;6093485;23;20017;-80
2022/01/15 05:26:29;;;;;;;1173.50;716.40;;;5.50;99.90;;;;;;6095056;23;20021;-80
2022/01/15 05:28:56;;;;;;;1169.00;682.78;;;5.50;99.90;;;;;;6094483;23;20061;-80
2022/01/15 05:31:23;;;;;;;1125.07;657.42;;;5.50;99.90;;;;;;6093873;23;20505;-80
2022/01/15 05:33:48;;;;;;;1144.97;598.30;;;5.50;99.90;;;;;;6094588;23;20109;-80
2022/01/15 05:36:14;;;;;;;1193.93;652.05;;;5.50;99.90;;;;;;6094683;23;20041;-81
2022/01/15 05:38:40;;;;;;;1142.15;624.15;;;5.50;99.90;;;;;;6094303;23;20458;-80
2022/01/15 05:41:05;;;;;;;1132.63;565.60;;;5.50;99.90;;;;;;6095006;23;20017;-80
2022/01/15 05:43:31;;;;;;;1124.57;573.17;;;5.50;99.90;;;;;;6093577;23;20022;-80
2022/01/15 05:45:56;;;;;;;1097.75;614.72;;;5.50;99.90;;;;;;6095394;23;20065;-80
2022/01/15 05:48:22;;;;;;;1096.85;619.55;;;5.50;99.90;;;;;;6093726;23;20104;-79
2022/01/15 05:50:47;;;;;;;1136.85;666.08;;;5.50;99.90;;;;;;6093722;23;20105;-79
2022/01/15 05:53:13;;;;;;;1232.07;798.90;;;5.50;99.90;;;;;;6093962;23;20057;-79
2022/01/15 05:55:39;;;;;;;1305.43;852.83;;;5.50;99.90;;;;;;6094389;23;20049;-79
2022/01/15 05:58:07;;;;;;;1256.88;776.08;;;5.50;99.90;;;;;;6093739;23;20129;-80
2022/01/15 06:00:33;;;;;;;1331.93;847.55;;;5.50;99.90;;;;;;6093380;23;20029;-80
2022/01/15 06:02:58;;;;;;;1237.60;730.17;;;5.40;99.90;;;;;;6093300;23;20109;-80
2022/01/15 06:05:24;;;;;;;1189.35;708.65;;;5.50;99.90;;;;;;6091874;23;20014;-79
2022/01/15 06:07:49;;;;;;;1239.05;768.67;;;5.50;99.90;;;;;;6093293;23;20073;-80
2022/01/15 06:10:15;;;;;;;1163.22;695.33;;;5.40;99.90;;;;;;6094472;23;20014;-80
2022/01/15 06:12:44;;;;;;;1172.18;671.78;;;5.40;99.90;;;;;;6093802;23;20030;-80
2022/01/15 06:15:15;;;;;;;1157.30;681.90;;;5.40;99.90;;;;;;6092736;23;20044;-80
2022/01/15 06:17:42;;;;;;;1150.75;642.88;;;5.40;99.90;;;;;;6089780;23;20549;-80
2022/01/15 06:20:09;;;;;;;1202.97;674.08;;;5.40;99.90;;;;;;6094260;23;20098;-80
2022/01/15 06:22:35;;;;;;;1191.57;591.38;;;5.50;99.90;;;;;;6093202;23;20030;-80
2022/01/15 06:25:03;;;;;;;1139.75;563.25;;;5.50;99.90;;;;;;6092917;23;20294;-79
2022/01/15 06:27:29;;;;;;;1176.47;594.00;;;5.50;99.90;;;;;;6091296;23;20018;-80
2022/01/15 06:29:56;;;;;;;1119.88;573.45;;;5.50;99.90;;;;;;6094147;23;20021;-80
2022/01/15 06:32:23;;;;;;;1149.80;606.60;;;5.50;99.90;;;;;;6093063;23;20318;-80
2022/01/15 06:34:48;;;;;;;1172.75;608.55;;;5.50;99.90;;;;;;6120672;23;20029;-80
2022/01/15 06:37:14;;;;;;;1136.22;589.05;;;5.50;99.90;;;;;;6118712;23;20399;-80
2022/01/15 06:39:40;;;;;;;1141.45;519.05;;;5.50;99.90;;;;;;6093149;23;20061;-80
2022/01/15 06:42:06;;;;;;;1142.30;524.50;;;5.50;99.90;;;;;;6094348;23;20360;-80
2022/01/15 06:44:31;;;;;;;1160.88;615.05;;;5.50;99.90;;;;;;6120398;23;20351;-80
2022/01/15 06:46:57;;;;;;;1113.10;591.50;;;5.90;99.90;;;;;;6119823;23;20022;-80
2022/01/15 06:49:23;;;;;;;1149.63;604.28;;;6.40;99.90;;;;;;6093434;23;20033;-78
2022/01/15 06:51:49;;;;;;;1088.10;488.10;;;5.50;99.90;;;;;;6093851;23;20045;-80
2022/01/15 06:54:14;;;;;;;1141.80;519.17;;;5.50;99.90;;;;;;6093202;23;20025;-79
2022/01/15 06:56:40;;;;;;;1118.57;594.40;;;5.50;99.90;;;;;;6093900;23;20029;-79
2022/01/15 06:59:06;;;;;;;1150.45;594.95;;;5.50;99.90;;;;;;6119194;23;20698;-80
2022/01/15 07:01:32;;;;;;;1116.07;495.00;;;6.00;99.90;;;;;;6091907;23;20040;-80
2022/01/15 07:03:57;;;;;;;1111.82;598.42;;;5.50;99.90;;;;;;6092694;23;20431;-80
2022/01/15 07:06:23;;;;;;;1240.70;673.95;;;7.30;99.90;;;;;;6093990;23;20431;-80
2022/01/15 07:08:49;;;;;;;1194.35;665.33;;;5.30;99.90;;;;;;6092023;23;20025;-80
2022/01/15 07:11:14;;;;;;;1155.90;570.70;;;5.50;99.90;;;;;;6093879;23;20074;-80
2022/01/15 07:13:40;;;;;;;1226.82;613.30;;;5.50;99.90;;;;;;6093047;23;20049;-80
2022/01/15 07:16:05;;;;;;;1094.93;558.97;;;5.50;99.90;;;;;;6093359;23;20053;-80
2022/01/15 07:18:32;;;;;;;1154.32;553.25;;;5.50;99.90;;;;;;6093607;23;20097;-80
2022/01/15 07:20:58;;;;;;;1150.70;542.42;;;5.50;99.90;;;;;;6095177;23;20010;-80
2022/01/15 07:23:23;;;;;;;1143.97;626.45;;;5.90;99.90;;;;;;6094311;23;20101;-80
2022/01/15 07:25:49;;;;;;;1185.60;629.15;;;5.50;99.90;;;;;;6095577;23;20018;-80
2022/01/15 07:28:17;;;;;;;1211.25;600.40;;;5.90;99.90;;;;;;6092134;23;20025;-80
2022/01/15 07:30:43;;;;;;;1232.43;687.40;;;5.50;99.90;;;;;;6094548;23;20033;-80
2022/01/15 07:33:09;;;;;;;1238.93;706.00;;;5.50;99.90;;;;;;6093798;23;20060;-80
2022/01/15 07:35:34;;;;;;;1253.25;706.42;;;5.40;99.90;;;;;;6119250;23;20100;-80
2022/01/15 07:38:00;;;;;;;1142.03;514.63;;;6.70;99.90;;;;;;6094984;23;20026;-80
2022/01/15 07:40:26;;;;;;;1150.15;621.53;;;6.00;99.90;;;;;;6094406;23;20021;-81
2022/01/15 07:42:52;;;;;;;1210.75;690.05;;;5.50;99.90;;;;;;6095318;23;20092;-80
2022/01/15 07:45:18;;;;;;;1186.63;613.33;;;5.40;99.90;;;;;;6094547;23;20089;-80
2022/01/15 07:47:44;;;;;;;1199.07;604.13;;;5.50;99.90;;;;;;6095806;23;20061;-80
2022/01/15 07:50:14;;;;;;;1167.97;625.80;;;5.50;99.90;;;;;;6093404;23;20050;-80
2022/01/15 07:52:40;;;;;;;1192.63;632.70;;;5.50;99.90;;;;;;6096084;23;20022;-80
2022/01/15 07:55:09;;;;;;;1179.28;552.13;;;5.50;99.90;;;;;;6095470;23;20025;-79
2022/01/15 07:57:35;;;;;;;1182.80;620.33;;;5.50;99.90;;;;;;6119908;23;20014;-80
2022/01/15 08:00:01;;;;;;;1210.05;688.78;;;5.50;99.90;;;;;;6093200;23;20060;-81
2022/01/15 08:02:27;;;;;;;1157.93;531.80;;;5.50;99.90;;;;;;6095540;23;20437;-81
2022/01/15 08:04:52;;;;;;;1170.10;608.13;;;5.40;99.90;;;;;;6093769;23;20041;-81
2022/01/15 08:07:18;;;;;;;1261.53;753.53;;;5.50;99.90;;;;;;6096265;23;20040;-82
2022/01/15 08:09:44;;;;;;;1315.45;791.88;;;5.40;99.90;;;;;;6094105;23;20014;-82
2022/01/15 08:12:11;;;;;;;1326.53;807.95;;;5.40;99.90;;;;;;6094656;23;20014;-84
2022/01/15 08:14:37;;;;;;;1341.88;803.40;;;5.40;99.90;;;;;;6096851;23;20018;-85
2022/01/15 08:17:03;;;;;;;1349.03;781.03;;;5.40;99.90;;;;;;6096237;23;20062;-84
2022/01/15 08:19:29;;;;;;;1401.70;800.17;;;5.40;99.90;;;;;;6091407;23;20355;-87
2022/01/15 08:21:54;;;;;;;1361.90;781.20;;;5.30;99.90;;;;;;6095204;23;20018;-85
2022/01/15 08:24:20;;;;;;;1359.57;757.83;;;6.40;99.90;;;;;;6094821;23;20096;-84
2022/01/15 08:26:51;;;;;;;1283.88;669.25;;;5.40;99.90;;;;;;6119400;23;20018;-83
2022/01/15 08:29:17;;;;;;;1290.00;716.70;;;5.40;99.90;;;;;;6094284;23;20677;-86
2022/01/15 08:31:43;;;;;;;1260.93;662.28;;;5.40;99.90;;;;;;6095096;23;20060;-85
2022/01/15 08:34:08;;;;;;;1274.50;702.42;;;5.40;99.90;;;;;;6093180;23;20097;-86
2022/01/15 08:36:36;;;;;;;1325.40;798.15;;;5.40;99.90;;;;;;6094919;23;20557;-85
2022/01/15 08:39:04;;;;;;;1266.18;721.42;;;5.40;99.90;;;;;;6094034;23;20018;-88
2022/01/15 08:41:29;;;;;;;1304.47;738.00;;;5.10;99.90;;;;;;6094726;23;20133;-84
2022/01/15 08:43:55;;;;;;;1300.22;692.65;;;5.40;99.90;;;;;;6093927;23;20089;-84
2022/01/15 08:46:21;;;;;;;1336.47;754.10;;;6.10;99.90;;;;;;6094071;23;20021;-84
2022/01/15 08:48:47;;;;;;;1171.82;617.33;;;6.00;99.90;;;;;;6093797;23;20463;-82
2022/01/15 08:51:13;;;;;;;1225.20;690.40;;;5.40;99.90;;;;;;6094865;23;20018;-85
2022/01/15 08:53:39;;;;;;;1310.00;751.58;;;5.40;99.90;;;;;;6093242;23;20079;-85
2022/01/15 08:56:08;;;;;;;1308.53;739.30;;;5.40;99.90;;;;;;6095427;23;20014;-87
2022/01/15 08:58:34;;;;;;;1367.28;817.78;;;5.40;99.90;;;;;;6094444;23;20128;-83
2022/01/15 09:01:00;;;;;;;1365.35;811.65;;;5.40;99.90;;;;;;6093630;23;20018;-86
2022/01/15 09:03:26;;;;;;;1341.97;738.42;;;7.00;99.90;;;;;;6093515;23;20036;-86
2022/01/15 09:05:53;;;;;;;1303.38;739.15;;;5.40;99.90;;;;;;6094369;23;20397;-86
2022/01/15 09:08:24;;;;;;;1346.85;741.05;;;5.40;99.90;;;;;;6090942;23;20022;-85
2022/01/15 09:10:52;;;;;;;1323.53;699.25;;;5.40;99.90;;;;;;6093407;23;20076;-85
2022/01/15 09:13:19;;;;;;;1370.03;760.17;;;5.30;99.90;;;;;;6091662;23;20054;-86
2022/01/15 09:15:45;;;;;;;1377.63;744.63;;;5.30;99.90;;;;;;6088482;23;20072;-87
2022/01/15 09:18:11;;;;;;;1386.60;779.65;;;5.30;99.90;;;;;;6065705;23;20056;-87
2022/01/15 09:20:37;;;;;;;1378.35;766.20;;;5.30;99.90;;;;;;6090229;23;20455;-87
2022/01/15 09:23:03;;;;;;;1387.18;788.70;;;5.30;99.90;;;;;;6089588;23;20072;-87
2022/01/15 09:25:29;;;;;;;1241.40;689.53;;;5.30;99.90;;;;;;6116798;23;20461;-86
2022/01/15 09:30:43;;;;;;;1424.20;788.50;;;5.50;99.90;;;;;;6118865;23;20076;-85
2022/01/15 09:33:09;;;;;;;1389.80;762.92;;;5.40;99.90;;;;;;6093037;23;20084;-85
2022/01/15 09:35:35;;;;;;;1458.50;776.60;;;5.30;99.90;;;;;;6090580;23;20137;-79
2022/01/15 09:38:00;;;;;;;1417.45;801.42;;;5.30;99.90;;;;;;6091125;23;20050;-86
2022/01/15 09:40:27;;;;;;;1441.57;785.90;;;5.30;99.90;;;;;;6115575;23;20621;-83
2022/01/15 09:42:53;;;;;;;1464.90;748.15;;;5.40;99.90;;;;;;6115924;23;20018;-86
2022/01/15 09:45:21;;;;;;;1458.05;757.80;;;5.30;99.90;;;;;;6091217;23;20018;-87
2022/01/15 09:48:01;;;;;;;1443.50;764.03;;;5.40;99.90;;;;;;6094225;23;20025;-86
2022/01/15 09:50:28;;;;;;;1510.78;764.08;;;5.30;99.90;;;;;;6088486;23;20025;-87
2022/01/15 09:52:55;;;;;;;1524.45;770.00;;;5.30;99.90;;;;;;6119042;23;20527;-87
2022/01/15 09:55:22;;;;;;;1515.68;744.30;;;5.30;99.90;;;;;;6090884;23;20065;-89
2022/01/15 09:57:48;;;;;;;1499.82;751.72;;;5.30;99.90;;;;;;6091232;23;20073;-86
2022/01/15 10:00:19;;;;;;;1415.57;737.72;;;5.30;99.90;;;;;;6090115;23;20041;-86
2022/01/15 10:02:56;;;;;;;1502.90;765.43;;;5.30;99.90;;;;;;6090895;23;20083;-86
2022/01/15 10:05:22;;;;;;;1530.28;732.85;;;5.30;99.90;;;;;;6114987;23;20030;-84
2022/01/15 10:08:10;;;;;;;1530.38;754.10;;;5.30;99.90;;;;;;6089276;23;20101;-86
2022/01/15 10:10:49;;;;;;;1549.65;745.00;;;5.20;99.90;;;;;;5097294;27;19928;-84
2022/01/15 10:13:21;;;;;;;1509.60;735.50;;;5.80;99.90;;;;;;5083774;28;20062;-84
2022/01/15 10:15:49;;;;;;;1540.72;751.85;;;5.30;99.90;;;;;;5084173;28;20051;-81
2022/01/15 10:18:35;;;;;;;1559.63;752.30;;;5.30;99.90;;;;;;5082289;28;20048;-83
2022/01/15 10:21:26;;;;;;;1530.65;744.45;;;5.30;99.90;;;;;;5084604;28;20395;-85
2022/01/15 10:23:54;;;;;;;1526.25;720.88;;;5.30;99.90;;;;;;5083426;28;20070;-82
2022/01/15 10:26:23;;;;;;;1535.55;753.28;;;5.30;99.90;;;;;;5083771;28;20066;-84
2022/01/15 10:29:01;;;;;;;1541.13;751.92;;;5.30;99.90;;;;;;5082939;28;20047;-82
2022/01/15 10:31:30;;;;;;;1496.68;713.13;;;5.30;99.90;;;;;;5083828;28;20055;-86
2022/01/15 10:33:58;;;;;;;1514.35;761.42;;;5.30;99.90;;;;;;5083523;28;20075;-84
2022/01/15 10:36:35;;;;;;;1516.13;774.97;;;5.40;99.90;;;;;;5084121;28;20044;-83
2022/01/15 10:39:14;;;;;;;1491.93;730.10;;;5.40;99.90;;;;;;5080412;28;20036;-85
2022/01/15 10:41:40;;;;;;;1480.10;782.28;;;5.40;99.90;;;;;;5083009;28;20384;-82
2022/01/15 10:44:31;;;;;;;1458.95;760.13;;;5.40;99.90;;;;;;5082152;28;20036;-84
2022/01/15 10:47:12;;;;;;;;;;;5.40;99.90;;;;;;5081512;28;20078;-79
2022/01/15 10:49:39;;;;;;;1532.07;746.70;;;5.40;99.90;;;;;;5062175;28;20317;-85
2022/01/15 10:52:17;;;;;;;1510.15;738.25;;;5.30;99.90;;;;;;5077088;28;20127;-82
2022/01/15 10:55:01;;;;;;;1512.07;765.75;;;5.40;99.90;;;;;;5081130;28;20438;-82
2022/01/15 10:57:34;;;;;;;1485.18;776.35;;;5.40;99.90;;;;;;5083457;28;20441;-86
2022/01/15 11:00:12;;;;;;;1524.10;764.33;;;5.40;99.90;;;;;;5082584;28;20044;-82
2022/01/15 11:02:49;;;;;;;1522.40;754.47;;;5.20;99.90;;;;;;5067656;28;20435;-85
2022/01/15 11:05:21;;;;;;;1513.55;754.00;;;5.30;99.90;;;;;;5082103;28;20123;-84
2022/01/15 11:07:47;;;;;;;1444.93;742.38;;;5.90;99.90;;;;;;5083272;28;20045;-81
2022/01/15 11:10:12;;;;;;;1506.15;749.35;;;5.30;99.90;;;;;;5083165;28;20274;-82
2022/01/15 11:12:38;;;;;;;1495.38;747.83;;;5.30;99.90;;;;;;5083287;28;20048;-81
2022/01/15 11:15:06;;;;;;;1516.38;773.50;;;5.30;99.90;;;;;;5081777;28;20131;-84
2022/01/15 11:17:33;;;;;;;1490.20;731.28;;;5.30;99.90;;;;;;5082788;28;20055;-84
2022/01/15 11:20:03;;;;;;;1484.97;764.13;;;5.30;99.90;;;;;;5079012;28;20060;-84
2022/01/15 11:22:35;;;;;;;1529.13;772.75;;;5.30;99.90;;;;;;5069056;28;20135;-84
2022/01/15 11:25:01;;;;;;;1474.85;748.38;;;5.70;99.90;;;;;;5066495;28;20041;-85
2022/01/15 11:27:29;;;;;;;1503.28;773.00;;;5.50;99.90;;;;;;5068988;28;20036;-85
2022/01/15 11:29:58;;;;;;;1521.32;769.33;;;5.30;99.90;;;;;;5059872;28;20051;-83
2022/01/15 11:32:28;;;;;;;1512.20;770.20;;;5.30;99.90;;;;;;5060729;28;20037;-84
2022/01/15 11:35:08;;;;;;;1469.32;750.15;;;6.40;99.90;;;;;;5066061;28;20166;-82
2022/01/15 11:37:43;;;;;;;1430.13;739.55;;;5.30;99.90;;;;;;5068652;28;20365;-85
2022/01/15 11:40:43;;;;;;;1449.43;773.53;;;5.30;99.90;;;;;;5069188;28;20071;-84
2022/01/15 11:43:24;;;;;;;1430.82;777.47;;;5.30;99.90;;;;;;5070486;28;20477;-84
2022/01/15 11:45:58;;;;;;;1463.40;789.35;;;5.30;99.90;;;;;;5069098;28;20048;-85
2022/01/15 11:48:29;;;;;;;1444.15;772.78;;;5.30;99.90;;;;;;5065035;28;20481;-84
2022/01/15 11:51:13;;;;;;;1351.50;663.67;;;5.30;99.90;;;;;;5048361;28;20128;-82
2022/01/15 11:53:47;;;;;;;1451.20;771.03;;;5.30;99.90;;;;;;5048641;28;20044;-79
2022/01/15 11:56:17;;;;;;;1444.53;778.15;;;5.30;99.90;;;;;;5048134;28;20167;-82
2022/01/15 11:58:43;;;;;;;1457.65;769.22;;;5.30;99.90;;;;;;5048684;28;20080;-83
2022/01/15 12:01:34;;;;;;;1497.10;755.88;;;5.30;99.90;;;;;;5056243;28;20479;-83
2022/01/15 12:04:25;;;;;;;1531.53;773.47;;;5.30;99.90;;;;;;5050807;28;20091;-83
2022/01/15 12:07:06;;;;;;;1498.28;750.47;;;5.30;99.90;;;;;;5068262;28;20048;-81
2022/01/15 12:09:40;;;;;;;1474.15;787.42;;;5.20;99.90;;;;;;5066943;28;20053;-82
2022/01/15 12:12:27;;;;;;;1465.20;782.83;;;5.20;99.90;;;;;;5067891;28;20040;-84
2022/01/15 12:14:58;;;;;;;1503.53;780.45;;;5.20;99.90;;;;;;5067457;28;20059;-84
2022/01/15 12:17:42;;;;;;;1513.03;781.88;;;5.10;99.90;;;;;;5088474;22;20044;-83
2022/01/15 12:20:32;;;;;;;1545.13;786.42;;;5.20;99.90;;;;;;5088688;28;20058;-80
2022/01/15 12:23:20;;;;;;;1526.55;765.00;;;5.10;99.90;;;;;;5089901;28;20048;-81
2022/01/15 12:25:47;;;;;;;1514.88;757.15;;;5.10;99.90;;;;;;5087080;28;20386;-84
2022/01/15 12:28:19;;;;;;;1491.30;759.90;;;5.10;99.90;;;;;;5083615;22;20381;-82
2022/01/15 12:30:50;;;;;;;1517.20;759.72;;;5.10;99.90;;;;;;5039084;28;20557;-85
2022/01/15 12:33:18;;;;;;;1539.97;791.05;;;5.50;99.90;;;;;;5027241;28;20053;-85
2022/01/15 12:35:52;;;;;;;1530.72;779.60;;;5.70;99.90;;;;;;5031047;28;20116;-83
2022/01/15 12:38:27;;;;;;;1512.38;755.67;;;5.10;99.90;;;;;;5047145;28;20524;-85
2022/01/15 12:41:06;;;;;;;1536.35;770.17;;;5.00;99.90;;;;;;5046384;28;20045;-81
2022/01/15 12:43:42;;;;;;;1535.85;737.58;;;5.00;99.90;;;;;;5046045;28;20420;-85
2022/01/15 12:46:12;;;;;;;1568.65;745.22;;;5.00;99.90;;;;;;5047650;28;20451;-85
2022/01/15 12:48:43;;;;;;;1535.55;743.03;;;5.00;99.90;;;;;;5049417;28;20052;-82